Fitzgerald, Georgia
Current Conditions -  °F | °C
As of 1:35 PM on Saturday 25 Oct 2014 (Local Time) from KFZG Reporting Station
Clear Clear  
Wind Chill: 77°   Ceiling: Unl
Heat Index: 77°   Visibility: 10mi
Dew Point: 36°   Wind: 0mph
Humidity: 23%   Direction: NA
Pressure: 30.04"   Gusts: NA
Location:  31.72°N, 83.25°W
Report Text: KFZG 251735Z AUTO 00000KT 10SM CLR 25/02 A3004 RMK AO2 T02500023
Loading
Personal Weather Stations






























Interactive Weather Map
Tropical Storm Tracking
New forecast layout! Learn more

10-Day Weather Forecast

Advertisements
Track Severe Weather on mobile